CYQX

Gander International Airport

Gander, Canada
METAR CYQX 101600Z 25018G23KT 15SM BKN024 BKN032 M03/M09 A2969 RMK SC5SC2 SLP064
Observed Flight Rules
Dec-10 @ 16:00 UTC (30 minutes ago) Marginal Visual Flight Rules
Wind Visibility Clouds
250° at 18 knots
 Gusting to 23 knots
15 miles
  • Broken at 2,400' AGL
  • Broken at 3,200' AGL
Temperatures Readings
Current -3°C / 27°F
Dewpoint -9°C / 16°F
Humidity 64%
Altimeter 29.69" Hg
Pressure 1006.4 hPa
Elevation 151
METAR CYQX 101600Z 25018G23KT 15SM BKN024 BKN032 M03/M09 A2969 RMK SC5SC2 SLP064
Observed Flight Rules
Dec-10 @ 16:00 UTC
(30 minutes ago)
MVFR
Wind Visibility
250° at 18 knots
 Gusting to 23 knots
15 miles
Clouds
  • Broken at 2,400' AGL
  • Broken at 3,200' AGL
Temperature Dewpoint
-3°C / 27°F -9°C / 16°F
Humidity Altimeter Pressure
64% 29.69" Hg 1006.4 hPa